Time;durP1;ratioP1;P1;durP2;ratioP2;P2;SDS_P1;SDS_P2;PMS_P1;PMS_P2;Temp;Humidity;BMP_temperature;BMP_pressure;BME280_temperature;BME280_humidity;BME280_pressure;Samples;Min_cycle;Max_cycle;Signal;HPM_P1;HPM_P2
2023/08/21 00:03:00;;;;;;;11.70;10.50;;;;;;;24.63;63.55;99497.09;223456;182;137733;-61
2023/08/21 00:08:04;;;;;;;12.50;10.80;;;;;;;24.59;63.40;99494.51;223532;182;147668;-60
2023/08/21 00:13:07;;;;;;;12.80;11.50;;;;;;;24.53;63.52;99489.15;223452;182;139076;-60
2023/08/21 00:18:11;;;;;;;12.40;10.80;;;;;;;24.47;63.95;99489.20;223461;183;137858;-62
2023/08/21 00:23:14;;;;;;;14.30;10.90;;;;;;;24.42;64.00;99491.75;223383;182;145858;-61
2023/08/21 00:28:17;;;;;;;14.40;11.70;;;;;;;24.36;64.28;99492.73;223481;182;139221;-61
2023/08/21 00:33:20;;;;;;;17.30;11.60;;;;;;;24.29;64.35;99493.48;223488;182;139355;-62
2023/08/21 00:38:24;;;;;;;13.90;11.60;;;;;;;24.23;64.67;99496.01;223502;182;145804;-61
2023/08/21 00:43:27;;;;;;;14.40;11.10;;;;;;;24.21;64.81;99494.61;223417;182;139021;-62
2023/08/21 00:48:31;;;;;;;13.50;11.80;;;;;;;24.19;65.05;99493.67;223507;182;137211;-61
2023/08/21 00:53:37;;;;;;;13.40;12.00;;;;;;;24.21;65.18;99487.68;223539;182;146964;-61
2023/08/21 00:58:40;;;;;;;13.70;12.00;;;;;;;24.22;65.22;99484.66;223463;182;139570;-59
2023/08/21 01:03:44;;;;;;;14.20;12.80;;;;;;;24.20;65.43;99479.45;223510;182;137817;-61
2023/08/21 01:08:56;;;;;;;15.10;11.70;;;;;;;24.15;65.74;99481.64;223097;182;145916;-61
2023/08/21 01:14:36;;;;;;;16.30;12.30;;;;;;;24.07;66.28;99489.42;223424;182;139371;-59
2023/08/21 01:19:45;;;;;;;17.50;12.90;;;;;;;23.93;66.67;99497.51;223519;182;140397;-58
2023/08/21 01:24:49;;;;;;;15.00;12.90;;;;;;;23.89;66.81;99489.86;223600;182;145774;-61
2023/08/21 01:29:53;;;;;;;13.70;11.40;;;;;;;23.90;67.11;99481.06;223412;181;139824;-61
2023/08/21 01:34:57;;;;;;;17.40;12.70;;;;;;;23.89;67.01;99485.28;223525;182;137835;-61
2023/08/21 01:40:00;;;;;;;19.30;12.60;;;;;;;23.89;67.18;99492.01;223466;183;146331;-61
2023/08/21 01:45:03;;;;;;;14.40;12.20;;;;;;;23.86;67.27;99490.65;223450;182;138926;-60
2023/08/21 01:50:07;;;;;;;14.20;12.70;;;;;;;23.80;67.01;99478.45;223551;182;137101;-62
2023/08/21 01:55:11;;;;;;;15.80;12.90;;;;;;;23.73;67.35;99476.58;223575;182;146434;-60
2023/08/21 02:00:16;;;;;;;13.80;12.40;;;;;;;23.65;67.53;99482.45;223489;182;138684;-61
2023/08/21 02:05:19;;;;;;;15.10;12.60;;;;;;;23.62;67.75;99492.20;223529;182;137486;-62
2023/08/21 02:10:29;;;;;;;15.70;11.10;;;;;;;23.57;67.61;99492.23;223394;182;146377;-62
2023/08/21 02:15:34;;;;;;;12.40;11.10;;;;;;;23.52;67.69;99485.69;223480;182;141143;-61
2023/08/21 02:20:37;;;;;;;14.80;11.50;;;;;;;23.48;67.74;99479.20;223384;182;138979;-62
2023/08/21 02:25:41;;;;;;;14.00;11.80;;;;;;;23.47;68.00;99476.62;223548;183;147020;-61
2023/08/21 02:30:46;;;;;;;18.00;12.60;;;;;;;23.48;68.05;99470.77;223541;183;138670;-62
2023/08/21 02:35:49;;;;;;;13.90;12.40;;;;;;;23.47;68.16;99472.70;223354;182;138755;-62
2023/08/21 02:40:52;;;;;;;15.90;12.60;;;;;;;23.37;68.21;99472.45;223573;182;146401;-60
2023/08/21 02:45:55;;;;;;;16.50;12.50;;;;;;;23.22;68.43;99476.23;223523;182;138931;-62
2023/08/21 02:50:59;;;;;;;13.40;11.60;;;;;;;23.13;68.85;99477.24;223539;182;139055;-61
2023/08/21 02:56:04;;;;;;;13.20;11.90;;;;;;;23.07;69.23;99474.30;223444;182;145956;-61
2023/08/21 03:01:08;;;;;;;15.80;13.00;;;;;;;23.06;69.52;99472.52;223434;181;138597;-61
2023/08/21 03:06:11;;;;;;;14.70;12.40;;;;;;;23.09;69.47;99466.64;223540;182;137622;-60
2023/08/21 03:11:14;;;;;;;14.90;13.30;;;;;;;23.11;69.49;99467.27;223359;182;145358;-63
2023/08/21 03:16:17;;;;;;;17.60;12.90;;;;;;;23.11;69.50;99466.17;223331;182;140188;-60
2023/08/21 03:21:23;;;;;;;14.30;12.60;;;;;;;23.11;69.50;99461.11;223527;182;137957;-61
2023/08/21 03:26:26;;;;;;;15.60;12.60;;;;;;;23.09;69.48;99458.59;223427;182;146181;-60
2023/08/21 03:31:31;;;;;;;13.50;12.10;;;;;;;23.06;69.68;99463.86;223436;182;142305;-60
2023/08/21 03:36:36;;;;;;;13.10;11.60;;;;;;;23.06;69.69;99469.69;223512;181;138280;-59
2023/08/21 03:41:39;;;;;;;16.00;13.00;;;;;;;23.05;69.72;99469.04;223508;182;146826;-61
2023/08/21 03:46:42;;;;;;;15.00;12.50;;;;;;;22.99;69.91;99471.84;223467;178;138926;-61
2023/08/21 03:51:46;;;;;;;14.10;12.60;;;;;;;23.00;69.99;99469.42;223536;182;137220;-60
2023/08/21 03:56:49;;;;;;;14.40;12.70;;;;;;;22.98;69.89;99464.77;223460;182;145362;-61
2023/08/21 04:01:53;;;;;;;15.00;12.70;;;;;;;22.93;70.20;99462.23;223434;182;139033;-61
2023/08/21 04:06:57;;;;;;;15.30;12.50;;;;;;;22.91;70.36;99456.95;223424;182;136836;-62
2023/08/21 04:12:00;;;;;;;13.50;11.80;;;;;;;22.92;70.31;99460.30;223438;182;145756;-61
2023/08/21 04:17:03;;;;;;;13.50;12.10;;;;;;;22.96;70.40;99466.42;223466;182;140065;-59
2023/08/21 04:22:07;;;;;;;14.80;12.80;;;;;;;23.02;70.38;99469.94;223544;182;136879;-62
2023/08/21 04:27:10;;;;;;;14.80;12.90;;;;;;;23.06;70.01;99476.30;223529;181;145763;-60
2023/08/21 04:32:13;;;;;;;15.80;13.70;;;;;;;23.06;70.16;99475.29;223375;181;139526;-62
2023/08/21 04:37:17;;;;;;;16.80;13.50;;;;;;;23.06;69.96;99475.88;223517;181;139111;-60
2023/08/21 04:42:20;;;;;;;16.30;12.10;;;;;;;23.02;69.91;99470.80;223349;182;146350;-60
2023/08/21 04:47:26;;;;;;;15.90;13.00;;;;;;;22.95;70.05;99472.46;223422;181;139796;-61
2023/08/21 04:52:32;;;;;;;13.90;12.00;;;;;;;22.94;70.38;99472.23;223503;181;138599;-61
2023/08/21 04:57:35;;;;;;;17.00;12.70;;;;;;;22.98;70.67;99467.79;223588;182;146492;-60
2023/08/21 05:02:41;;;;;;;38.60;29.80;;;;;;;23.10;70.62;99467.35;223405;182;140390;-59
2023/08/21 05:07:44;;;;;;;17.40;13.30;;;;;;;23.19;70.30;99466.26;223463;182;137365;-59
2023/08/21 05:12:48;;;;;;;17.70;12.50;;;;;;;23.29;70.14;99467.13;223505;181;146283;-59
2023/08/21 05:17:52;;;;;;;15.60;12.00;;;;;;;23.36;69.90;99475.84;223515;182;139923;-60
2023/08/21 05:22:56;;;;;;;15.70;11.60;;;;;;;23.40;69.81;99486.06;223407;181;140162;-60
2023/08/21 05:27:59;;;;;;;18.50;12.60;;;;;;;23.49;69.44;99484.52;223535;182;145776;-59
2023/08/21 05:33:03;;;;;;;15.80;11.80;;;;;;;23.57;69.22;99476.86;223590;182;138930;-60
2023/08/21 05:38:08;;;;;;;21.40;13.20;;;;;;;23.71;69.24;99480.55;223505;181;138409;-58
2023/08/21 05:43:11;;;;;;;16.60;12.10;;;;;;;23.85;68.80;99468.66;223560;181;145847;-61
2023/08/21 05:48:17;;;;;;;16.30;12.50;;;;;;;23.93;68.49;99468.31;223512;182;138811;-61
2023/08/21 05:53:20;;;;;;;14.80;12.30;;;;;;;23.97;68.06;99482.05;223499;181;137265;-60
2023/08/21 05:58:23;;;;;;;13.90;11.50;;;;;;;24.03;68.15;99487.90;223551;181;147452;-61
2023/08/21 06:03:26;;;;;;;14.80;11.30;;;;;;;24.15;67.91;99486.73;223526;182;140367;-59
2023/08/21 06:09:03;;;;;;;17.20;11.70;;;;;;;24.33;67.32;99484.50;223367;183;249124;-60
2023/08/21 06:14:06;;;;;;;20.60;12.20;;;;;;;24.46;66.82;99486.38;223510;182;147593;-60
2023/08/21 06:19:10;;;;;;;16.20;10.80;;;;;;;24.58;66.54;99493.15;223431;182;139370;-61
2023/08/21 06:24:13;;;;;;;17.60;10.90;;;;;;;24.74;66.16;99489.50;223383;183;137890;-62
2023/08/21 06:29:16;;;;;;;15.70;10.90;;;;;;;24.88;65.83;99489.89;223534;181;148211;-58
2023/08/21 06:34:20;;;;;;;13.20;10.80;;;;;;;24.95;65.51;99486.22;223462;181;139139;-62
2023/08/21 06:39:23;;;;;;;19.60;11.30;;;;;;;25.04;65.35;99490.81;223539;179;137421;-61
2023/08/21 06:44:26;;;;;;;14.40;11.10;;;;;;;25.16;65.00;99491.61;223474;181;147382;-60
2023/08/21 06:49:29;;;;;;;11.70;10.20;;;;;;;25.25;64.28;99497.14;223485;182;139646;-58
2023/08/21 06:54:32;;;;;;;16.00;10.70;;;;;;;25.33;63.95;99498.61;223493;181;139508;-59
2023/08/21 06:59:36;;;;;;;12.30;10.50;;;;;;;25.49;63.93;99496.46;223243;181;147762;-62
2023/08/21 07:04:39;;;;;;;16.40;10.50;;;;;;;25.75;63.75;99500.01;223396;181;140485;-59
2023/08/21 07:09:43;;;;;;;13.80;10.90;;;;;;;25.94;62.96;99503.43;223583;181;138285;-60
2023/08/21 07:14:46;;;;;;;13.50;10.40;;;;;;;26.03;61.87;99510.36;223554;181;147337;-60
2023/08/21 07:19:52;;;;;;;15.90;10.30;;;;;;;26.09;61.68;99511.09;223527;181;140694;-60
2023/08/21 07:24:55;;;;;;;18.00;10.90;;;;;;;26.14;61.49;99512.67;223476;181;137242;-61
2023/08/21 07:29:58;;;;;;;16.10;10.40;;;;;;;26.20;61.67;99511.39;223457;181;148608;-61
2023/08/21 07:35:02;;;;;;;15.90;10.90;;;;;;;26.28;61.99;99507.81;223441;182;141014;-60
2023/08/21 07:40:06;;;;;;;13.00;10.40;;;;;;;26.35;61.38;99509.34;223583;182;137894;-61
2023/08/21 07:45:10;;;;;;;14.40;10.00;;;;;;;26.37;60.86;99511.10;223408;181;150069;-63
2023/08/21 07:50:16;;;;;;;13.40;10.10;;;;;;;26.40;61.10;99514.63;223394;181;139226;-61
2023/08/21 07:55:21;;;;;;;17.80;10.30;;;;;;;26.43;60.84;99519.17;223436;182;139116;-61
2023/08/21 08:00:25;;;;;;;18.30;10.50;;;;;;;26.44;60.83;99517.54;223480;182;149057;-61
2023/08/21 08:05:28;;;;;;;19.10;10.30;;;;;;;26.52;61.22;99526.79;223367;182;139567;-61
2023/08/21 08:10:31;;;;;;;14.00;10.40;;;;;;;26.60;61.11;99544.76;223495;182;137589;-61
2023/08/21 08:15:35;;;;;;;13.10;11.00;;;;;;;26.65;61.21;99551.98;223590;181;148171;-60
2023/08/21 08:20:39;;;;;;;14.30;9.80;;;;;;;26.73;61.38;99560.84;223514;182;139220;-60
2023/08/21 08:25:43;;;;;;;17.50;11.50;;;;;;;26.76;61.33;99561.64;223503;181;137568;-60
2023/08/21 08:30:46;;;;;;;17.20;11.40;;;;;;;26.84;61.32;99560.59;223476;181;149369;-62
2023/08/21 08:35:49;;;;;;;24.70;15.70;;;;;;;26.94;61.52;99561.05;223491;181;139959;-61
2023/08/21 08:40:54;;;;;;;38.20;21.40;;;;;;;26.96;60.92;99569.95;223455;181;140632;-64
2023/08/21 08:45:59;;;;;;;30.20;20.50;;;;;;;26.94;60.28;99576.95;223496;182;147451;-62
2023/08/21 08:51:06;;;;;;;31.80;20.30;;;;;;;26.95;60.48;99578.64;223422;181;139858;-58
2023/08/21 08:56:09;;;;;;;30.90;20.60;;;;;;;26.93;60.40;99584.30;223535;181;138280;-59
2023/08/21 09:01:13;;;;;;;30.30;19.50;;;;;;;26.87;60.84;99590.08;223473;181;149724;-57
2023/08/21 09:06:16;;;;;;;22.10;15.30;;;;;;;26.83;61.17;99590.23;223406;182;139410;-58
2023/08/21 09:11:20;;;;;;;23.10;14.10;;;;;;;26.76;61.57;99592.66;223506;182;140964;-59
2023/08/21 09:16:25;;;;;;;15.80;12.20;;;;;;;26.72;61.38;99594.34;223437;181;148207;-59
2023/08/21 09:21:28;;;;;;;17.00;12.50;;;;;;;26.70;61.34;99584.39;223343;181;139051;-58
2023/08/21 09:26:33;;;;;;;15.60;11.20;;;;;;;26.65;61.67;99582.90;223479;182;137490;-59
2023/08/21 09:31:36;;;;;;;17.50;10.90;;;;;;;26.59;61.93;99580.91;223459;182;147845;-58
2023/08/21 09:36:53;;;;;;;14.50;10.10;;;;;;;26.57;62.06;99575.55;223462;181;140502;-58
2023/08/21 09:41:57;;;;;;;15.00;11.40;;;;;;;26.59;62.11;99570.66;223461;181;137934;-59
2023/08/21 09:47:00;;;;;;;12.50;10.20;;;;;;;26.62;61.98;99564.35;223436;181;148278;-59
2023/08/21 09:52:05;;;;;;;16.60;10.40;;;;;;;26.63;62.05;99557.23;223563;182;140504;-60
2023/08/21 09:57:09;;;;;;;16.30;10.70;;;;;;;26.68;62.16;99556.86;223458;181;141668;-60
2023/08/21 10:02:13;;;;;;;;;;;;;;;26.75;62.37;99557.34;223495;181;147580;-58
2023/08/21 10:07:22;;;;;;;15.00;10.50;;;;;;;26.83;61.97;99555.05;223521;181;139967;-60
2023/08/21 10:12:26;;;;;;;15.60;11.10;;;;;;;26.99;61.69;99555.54;223404;181;139241;-58
2023/08/21 10:17:31;;;;;;;16.00;10.60;;;;;;;27.05;61.47;99553.48;223500;182;147750;-59
2023/08/21 10:22:42;;;;;;;18.70;10.70;;;;;;;27.12;61.74;99548.55;223380;181;139745;-60
2023/08/21 10:27:46;;;;;;;18.60;11.00;;;;;;;27.30;61.33;99544.49;223486;182;137867;-59
2023/08/21 10:32:54;;;;;;;16.60;10.60;;;;;;;27.36;61.04;99537.11;223395;182;147500;-59
2023/08/21 10:38:17;;;;;;;14.60;10.80;;;;;;;27.34;60.76;99532.20;223504;181;139323;-58
2023/08/21 10:43:40;;;;;;;24.80;11.10;;;;;;;27.44;60.95;99529.52;223487;181;139638;-57
2023/08/21 10:48:43;;;;;;;19.90;10.70;;;;;;;27.47;60.83;99521.88;223578;182;148190;-60
2023/08/21 10:53:46;;;;;;;16.00;11.00;;;;;;;27.63;60.65;99524.18;223516;178;138896;-58
2023/08/21 10:58:51;;;;;;;18.00;11.80;;;;;;;27.93;60.57;99515.21;223413;182;138957;-62
2023/08/21 11:03:54;;;;;;;17.70;11.90;;;;;;;28.05;59.65;99514.90;223494;181;147617;-58
2023/08/21 11:08:59;;;;;;;17.40;10.80;;;;;;;28.13;59.57;99514.64;223471;182;139319;-59
2023/08/21 11:14:07;;;;;;;19.60;10.80;;;;;;;28.33;59.17;99518.23;223414;182;141683;-59
2023/08/21 11:19:10;;;;;;;14.70;11.60;;;;;;;28.60;58.81;99507.80;223521;181;148229;-60
2023/08/21 11:24:14;;;;;;;15.70;11.30;;;;;;;28.96;58.35;99504.45;223536;182;140884;-60
2023/08/21 11:29:17;;;;;;;18.70;10.80;;;;;;;29.26;57.96;99500.48;223402;181;137723;-60
2023/08/21 11:34:21;;;;;;;20.20;10.90;;;;;;;29.52;55.95;99499.30;223525;181;149343;-61
2023/08/21 11:39:29;;;;;;;18.00;11.60;;;;;;;29.67;55.33;99495.65;223462;182;142001;-59
2023/08/21 11:44:33;;;;;;;17.30;10.40;;;;;;;29.85;54.53;99486.48;223488;181;138213;-60
2023/08/21 11:49:37;;;;;;;15.60;11.80;;;;;;;29.88;54.24;99483.83;223329;182;147611;-60
2023/08/21 11:54:41;;;;;;;18.00;10.80;;;;;;;30.14;53.98;99483.63;223412;181;138939;-60
2023/08/21 12:00:04;;;;;;;18.80;10.90;;;;;;;30.41;52.38;99478.27;223445;182;139099;-59
2023/08/21 12:05:14;;;;;;;14.60;10.70;;;;;;;30.67;51.60;99470.96;223355;181;147525;-60
2023/08/21 12:10:24;;;;;;;16.30;11.10;;;;;;;30.71;50.48;99467.48;223454;181;138951;-60
2023/08/21 12:15:28;;;;;;;13.60;10.90;;;;;;;30.57;50.52;99465.92;223411;183;136927;-59
2023/08/21 12:20:31;;;;;;;20.10;11.80;;;;;;;30.43;50.79;99467.25;223373;182;147378;-61
2023/08/21 12:25:34;;;;;;;14.20;11.10;;;;;;;30.25;49.83;99467.73;223499;181;139482;-59
2023/08/21 12:30:38;;;;;;;12.80;11.00;;;;;;;30.07;50.63;99465.68;223501;182;137766;-59
2023/08/21 12:35:41;;;;;;;14.90;11.60;;;;;;;29.88;50.41;99460.60;223438;181;147699;-60
2023/08/21 12:40:45;;;;;;;16.70;11.70;;;;;;;29.73;50.32;99454.21;223449;181;139599;-58
2023/08/21 12:45:48;;;;;;;13.90;10.90;;;;;;;29.61;50.52;99451.27;223471;181;137350;-59
2023/08/21 12:50:51;;;;;;;15.70;11.70;;;;;;;29.52;50.55;99447.94;223406;181;148254;-60
2023/08/21 12:55:56;;;;;;;;;;;;;;;29.43;50.28;99447.50;223396;182;138914;-59
2023/08/21 13:01:03;;;;;;;16.60;11.70;;;;;;;29.33;50.05;99449.49;223259;181;234466;-59
2023/08/21 13:06:08;;;;;;;18.30;12.50;;;;;;;29.28;50.39;99445.64;223452;182;148660;-60
2023/08/21 13:11:11;;;;;;;16.80;11.50;;;;;;;29.26;50.82;99448.54;223448;181;140649;-60
2023/08/21 13:16:15;;;;;;;18.10;13.90;;;;;;;29.33;51.12;99445.52;223582;181;141120;-59
2023/08/21 13:21:19;;;;;;;22.50;14.90;;;;;;;29.54;51.37;99438.91;223476;181;148918;-58
2023/08/21 13:26:22;;;;;;;24.00;15.70;;;;;;;29.69;51.45;99431.79;223488;181;138346;-60
2023/08/21 13:31:28;;;;;;;23.60;14.80;;;;;;;30.04;51.32;99430.45;223405;181;139116;-59
2023/08/21 13:36:56;;;;;;;19.30;14.70;;;;;;;30.49;49.95;99426.95;223478;182;147626;-60
2023/08/21 13:41:59;;;;;;;22.00;15.30;;;;;;;30.70;49.75;99422.52;223381;181;141610;-60
2023/08/21 13:47:03;;;;;;;23.40;13.90;;;;;;;31.12;49.05;99418.17;223439;181;138225;-60
2023/08/21 13:52:06;;;;;;;16.90;13.00;;;;;;;31.54;47.69;99415.01;223598;181;150277;-59
2023/08/21 13:57:09;;;;;;;14.70;12.20;;;;;;;31.80;45.80;99411.92;223450;181;141330;-59
2023/08/21 14:02:13;;;;;;;12.90;10.70;;;;;;;32.03;45.16;99404.01;223451;181;137858;-61
2023/08/21 14:07:16;;;;;;;13.60;11.00;;;;;;;32.24;44.17;99395.13;223439;181;147686;-58
2023/08/21 14:12:19;;;;;;;18.50;10.40;;;;;;;32.44;44.13;99387.94;223486;181;140470;-60
2023/08/21 14:17:22;;;;;;;14.90;10.70;;;;;;;32.60;43.61;99380.65;223471;182;137967;-59
2023/08/21 14:22:26;;;;;;;14.50;10.30;;;;;;;32.65;42.97;99377.06;223453;182;147324;-59
2023/08/21 14:27:29;;;;;;;15.10;10.90;;;;;;;32.62;43.14;99369.30;223452;182;138880;-60
2023/08/21 14:32:32;;;;;;;17.10;10.70;;;;;;;32.58;43.44;99365.74;223553;181;137553;-63
2023/08/21 14:37:40;;;;;;;13.60;9.60;;;;;;;32.50;43.19;99360.96;223425;181;147305;-60
2023/08/21 14:42:43;;;;;;;13.80;10.40;;;;;;;32.33;42.84;99352.73;223440;182;139613;-60
2023/08/21 14:47:46;;;;;;;16.50;10.20;;;;;;;32.05;43.17;99346.20;223372;181;138971;-59
2023/08/21 14:52:50;;;;;;;13.60;9.90;;;;;;;31.80;43.47;99344.56;223490;181;147610;-59
2023/08/21 14:57:53;;;;;;;11.00;9.00;;;;;;;31.62;44.21;99348.97;223521;181;141028;-60
2023/08/21 15:02:56;;;;;;;13.90;9.00;;;;;;;31.41;44.51;99351.39;223311;181;137282;-59
2023/08/21 15:08:01;;;;;;;11.80;9.20;;;;;;;31.23;44.32;99345.69;223400;181;147622;-60
2023/08/21 15:13:04;;;;;;;14.90;10.10;;;;;;;31.10;44.97;99347.37;223391;181;138889;-58
2023/08/21 15:18:08;;;;;;;11.70;9.60;;;;;;;30.99;45.46;99341.69;223511;181;137661;-60
2023/08/21 15:23:12;;;;;;;13.80;10.80;;;;;;;30.85;45.49;99340.70;223455;181;147970;-59
2023/08/21 15:28:16;;;;;;;12.50;10.30;;;;;;;30.72;46.07;99341.04;223430;182;139000;-59
2023/08/21 15:33:19;;;;;;;13.60;11.00;;;;;;;30.60;46.91;99339.61;223361;181;138345;-62
2023/08/21 15:38:22;;;;;;;11.20;10.00;;;;;;;30.48;47.34;99336.73;223339;183;148609;-58
2023/08/21 15:43:26;;;;;;;14.30;10.70;;;;;;;30.40;47.42;99336.39;223319;182;139317;-58
2023/08/21 15:48:29;;;;;;;13.90;10.60;;;;;;;30.33;47.58;99332.77;223482;181;137207;-58
2023/08/21 15:53:32;;;;;;;12.30;9.90;;;;;;;30.27;47.82;99327.89;223312;181;147738;-59
2023/08/21 15:58:35;;;;;;;13.30;10.30;;;;;;;30.25;47.78;99326.02;223435;182;138951;-59
2023/08/21 16:03:38;;;;;;;12.90;9.60;;;;;;;30.21;48.10;99323.17;223606;182;141497;-58
2023/08/21 16:08:42;;;;;;;17.00;11.80;;;;;;;30.12;48.38;99329.58;223459;182;149468;-57
2023/08/21 16:13:45;;;;;;;16.70;11.00;;;;;;;30.02;48.87;99329.60;223208;181;138938;-59
2023/08/21 16:18:48;;;;;;;13.40;11.00;;;;;;;29.94;49.19;99331.52;223306;181;137119;-58
2023/08/21 16:24:13;;;;;;;15.30;11.30;;;;;;;29.86;49.54;99334.61;223426;181;149368;-58
2023/08/21 16:29:18;;;;;;;18.60;11.50;;;;;;;29.79;49.78;99336.19;223397;181;139558;-57
2023/08/21 16:34:21;;;;;;;16.60;11.30;;;;;;;29.73;50.08;99336.10;223370;182;138628;-59
2023/08/21 16:39:25;;;;;;;17.20;12.00;;;;;;;29.70;50.35;99334.63;223401;182;147800;-59
2023/08/21 16:44:28;;;;;;;15.70;12.90;;;;;;;29.64;50.84;99331.77;223344;181;139456;-58
2023/08/21 16:49:32;;;;;;;17.30;12.70;;;;;;;29.49;51.36;99335.32;223448;182;138000;-57
2023/08/21 16:54:35;;;;;;;16.10;12.30;;;;;;;29.37;52.05;99336.65;223394;182;147423;-58
2023/08/21 16:59:38;;;;;;;16.30;12.30;;;;;;;29.18;52.86;99340.46;223360;182;138947;-58
2023/08/21 17:04:41;;;;;;;16.60;12.30;;;;;;;29.01;53.47;99336.20;223335;182;137068;-57
2023/08/21 17:09:46;;;;;;;15.10;12.60;;;;;;;28.83;54.59;99340.30;223527;182;147649;-58
2023/08/21 17:14:49;;;;;;;13.70;12.10;;;;;;;28.67;55.52;99338.18;223311;181;141114;-59
2023/08/21 17:19:53;;;;;;;17.50;13.40;;;;;;;28.54;56.19;99343.56;223408;182;138006;-58
2023/08/21 17:24:56;;;;;;;16.70;12.90;;;;;;;28.47;56.77;99349.09;223360;181;147441;-59
2023/08/21 17:30:19;;;;;;;17.70;13.00;;;;;;;28.42;57.31;99344.30;223366;181;138805;-58
2023/08/21 17:35:23;;;;;;;18.10;12.80;;;;;;;28.32;57.73;99352.27;223440;181;138660;-59
2023/08/21 17:40:26;;;;;;;14.00;12.30;;;;;;;28.25;58.29;99360.23;223507;182;147384;-60
2023/08/21 17:45:29;;;;;;;17.10;12.60;;;;;;;28.21;58.62;99367.66;223543;182;138771;-59
2023/08/21 17:50:32;;;;;;;23.40;13.60;;;;;;;28.13;59.19;99376.66;223288;181;137889;-57
2023/08/21 17:55:37;;;;;;;20.20;13.70;;;;;;;28.06;60.42;99384.52;223424;181;149406;-56
2023/08/21 18:00:40;;;;;;;19.00;12.70;;;;;;;28.01;61.14;99397.33;223362;182;140001;-58
2023/08/21 18:05:43;;;;;;;19.20;13.40;;;;;;;27.95;61.71;99403.02;223520;181;137642;-56
2023/08/21 18:10:46;;;;;;;17.10;11.80;;;;;;;27.91;61.92;99419.09;223335;182;149073;-58
2023/08/21 18:15:54;;;;;;;15.30;10.70;;;;;;;27.86;62.03;99420.28;223424;182;139961;-59
2023/08/21 18:20:57;;;;;;;13.80;11.40;;;;;;;27.83;62.08;99422.35;223436;181;138007;-56
2023/08/21 18:26:01;;;;;;;14.90;9.80;;;;;;;27.82;61.66;99423.88;223347;182;147825;-59
2023/08/21 18:31:05;;;;;;;16.30;10.40;;;;;;;27.78;61.60;99425.20;223340;181;141006;-59
2023/08/21 18:36:08;;;;;;;14.50;10.00;;;;;;;27.71;62.36;99422.73;223374;182;137428;-60
2023/08/21 18:41:13;;;;;;;;;;;;;;;27.64;62.61;99411.47;223366;182;147867;-57
2023/08/21 18:46:18;;;;;;;15.30;11.80;;;;;;;27.54;63.02;99412.71;223447;182;138583;-59
2023/08/21 18:51:27;;;;;;;17.10;11.30;;;;;;;27.45;63.53;99417.34;223491;182;137276;-62
2023/08/21 18:56:38;;;;;;;15.90;11.40;;;;;;;27.38;64.05;99422.78;223389;181;148237;-60
2023/08/21 19:01:42;;;;;;;16.90;11.70;;;;;;;27.33;64.32;99425.03;223388;182;140464;-60
2023/08/21 19:06:45;;;;;;;12.60;11.00;;;;;;;27.27;64.48;99431.27;223337;181;138450;-59
2023/08/21 19:12:09;;;;;;;14.80;10.50;;;;;;;27.20;65.25;99438.02;223346;181;148391;-57
2023/08/21 19:17:12;;;;;;;11.70;10.20;;;;;;;27.15;65.86;99436.77;223341;182;141565;-62
2023/08/21 19:22:16;;;;;;;11.60;10.20;;;;;;;27.10;65.86;99448.42;223403;182;137201;-60
2023/08/21 19:27:19;;;;;;;15.60;10.10;;;;;;;27.05;66.11;99459.88;223439;181;147790;-58
2023/08/21 19:32:22;;;;;;;13.90;10.50;;;;;;;26.98;66.34;99469.70;223317;182;139950;-62
2023/08/21 19:37:26;;;;;;;11.80;10.00;;;;;;;26.91;66.57;99474.14;223449;181;137863;-61
2023/08/21 19:42:29;;;;;;;11.50;10.30;;;;;;;26.82;66.61;99463.77;223423;181;147546;-62
2023/08/21 19:47:32;;;;;;;16.40;9.50;;;;;;;26.75;66.47;99461.54;223364;181;140184;-61
2023/08/21 19:52:36;;;;;;;11.50;9.30;;;;;;;26.71;66.88;99464.64;223398;182;139456;-62
2023/08/21 19:57:39;;;;;;;13.80;9.60;;;;;;;26.68;67.01;99466.14;223464;182;148537;-63
2023/08/21 20:02:43;;;;;;;11.10;10.00;;;;;;;26.64;66.69;99465.88;223402;178;139601;-60
2023/08/21 20:07:49;;;;;;;11.60;9.80;;;;;;;26.55;66.47;99468.73;223436;181;137377;-65
2023/08/21 20:12:53;;;;;;;11.40;9.50;;;;;;;26.46;66.57;99472.40;223372;181;149245;-62
2023/08/21 20:17:56;;;;;;;11.40;9.80;;;;;;;26.34;66.49;99474.73;223348;181;138542;-61
2023/08/21 20:22:59;;;;;;;16.30;9.60;;;;;;;26.23;66.77;99472.29;223404;182;137536;-62
2023/08/21 20:28:03;;;;;;;10.40;9.30;;;;;;;26.11;66.89;99478.80;223551;181;148037;-59
2023/08/21 20:33:06;;;;;;;12.10;9.20;;;;;;;25.96;67.13;99480.54;223403;182;139410;-61
2023/08/21 20:38:10;;;;;;;11.90;8.90;;;;;;;25.86;67.43;99482.02;223242;182;138764;-60
2023/08/21 20:43:13;;;;;;;14.70;9.00;;;;;;;25.81;67.75;99483.65;223462;182;148237;-63
2023/08/21 20:48:16;;;;;;;9.80;8.50;;;;;;;25.78;67.80;99483.14;223452;181;138874;-62
2023/08/21 20:53:19;;;;;;;14.30;8.90;;;;;;;25.72;67.87;99484.27;223330;182;137306;-63
2023/08/21 20:58:23;;;;;;;11.80;9.40;;;;;;;25.69;68.10;99484.42;223425;182;147759;-61
2023/08/21 21:03:27;;;;;;;11.10;8.80;;;;;;;25.65;68.11;99480.10;223418;182;140235;-63
2023/08/21 21:08:30;;;;;;;11.80;9.20;;;;;;;25.57;68.12;99480.13;223435;182;138030;-62
2023/08/21 21:13:34;;;;;;;12.60;7.40;;;;;;;25.48;68.46;99483.27;223435;183;148953;-61
2023/08/21 21:18:37;;;;;;;9.10;8.10;;;;;;;25.42;68.67;99486.92;223347;183;139221;-62
2023/08/21 21:26:16;;;;;;;10.10;8.10;;;;;;;25.51;68.58;99487.93;222136;191;665476;-62
2023/08/21 21:31:19;;;;;;;10.20;8.50;;;;;;;25.53;68.72;99494.35;222920;187;136882;-61
2023/08/21 21:36:22;;;;;;;10.40;7.90;;;;;;;25.49;68.39;99498.51;223316;184;144354;-62
2023/08/21 21:41:25;;;;;;;12.90;8.20;;;;;;;25.46;68.52;99513.23;223066;185;138671;-63
2023/08/21 21:46:29;;;;;;;10.10;7.00;;;;;;;25.40;68.44;99516.11;223406;180;137047;-60
2023/08/21 21:51:33;;;;;;;11.70;7.20;;;;;;;25.35;68.64;99517.52;223369;183;144168;-62
2023/08/21 21:56:37;;;;;;;9.50;6.90;;;;;;;25.31;68.34;99518.85;223287;181;139749;-61
2023/08/21 22:01:40;;;;;;;11.20;6.80;;;;;;;25.30;68.36;99512.14;223110;184;139377;-61
2023/08/21 22:06:44;;;;;;;11.50;7.70;;;;;;;25.32;68.21;99515.98;223312;184;144939;-62
2023/08/21 22:11:48;;;;;;;11.10;7.20;;;;;;;25.28;68.17;99513.72;223409;183;138860;-60
2023/08/21 22:16:51;;;;;;;8.30;7.30;;;;;;;25.19;68.40;99516.83;223409;183;138541;-62
2023/08/21 22:21:54;;;;;;;13.00;8.10;;;;;;;25.12;68.95;99514.80;223219;183;146205;-60
2023/08/21 22:26:57;;;;;;;8.80;7.90;;;;;;;25.04;69.23;99520.02;223174;184;139701;-61
2023/08/21 22:32:00;;;;;;;13.30;8.00;;;;;;;25.03;69.58;99520.09;223023;180;138704;-60
2023/08/21 22:37:05;;;;;;;11.70;7.20;;;;;;;25.03;69.66;99513.63;223245;184;146815;-62
2023/08/21 22:42:08;;;;;;;10.30;8.80;;;;;;;24.99;69.73;99517.33;223199;184;138724;-61
2023/08/21 22:47:12;;;;;;;15.30;10.00;;;;;;;24.92;69.91;99523.95;223179;184;137277;-63
2023/08/21 22:52:15;;;;;;;16.50;8.50;;;;;;;24.85;70.29;99528.02;223311;184;145859;-61
2023/08/21 22:57:18;;;;;;;9.60;8.30;;;;;;;24.80;70.80;99525.34;223326;184;138958;-60
2023/08/21 23:02:21;;;;;;;8.70;7.60;;;;;;;24.81;69.41;99521.79;223561;181;137673;-64
2023/08/21 23:07:25;;;;;;;8.10;6.80;;;;;;;24.84;68.87;99519.66;223571;181;145808;-60
2023/08/21 23:12:28;;;;;;;9.10;7.20;;;;;;;24.85;68.72;99510.23;223373;181;138893;-60